createdAt,value
2018-09-21T00:00:22.437Z,1026.11
2018-09-21T00:01:22.433Z,1026.07
2018-09-21T00:02:22.431Z,1026.11
2018-09-21T00:03:22.426Z,1026.09
2018-09-21T00:04:22.416Z,1026.05
2018-09-21T00:05:22.412Z,1026.07
2018-09-21T00:06:22.407Z,1026.04
2018-09-21T00:07:22.401Z,1026.04
2018-09-21T00:08:22.396Z,1026.02
2018-09-21T00:09:22.391Z,1026.04
2018-09-21T00:10:22.386Z,1025.97
2018-09-21T00:11:22.380Z,1025.98
2018-09-21T00:12:22.377Z,1025.94
2018-09-21T00:13:22.370Z,1025.93
2018-09-21T00:14:22.365Z,1025.96
2018-09-21T00:15:22.359Z,1025.91
2018-09-21T00:16:22.355Z,1025.94
2018-09-21T00:17:22.349Z,1025.95
2018-09-21T00:18:22.343Z,1025.94
2018-09-21T00:19:22.338Z,1026
2018-09-21T00:20:22.333Z,1026
2018-09-21T00:21:22.328Z,1025.98
2018-09-21T00:22:22.321Z,1025.94
2018-09-21T00:23:22.317Z,1025.98
2018-09-21T00:24:22.315Z,1025.98
2018-09-21T00:25:22.309Z,1026.03
2018-09-21T00:26:22.301Z,1025.99
2018-09-21T00:27:22.295Z,1025.98
2018-09-21T00:28:22.293Z,1025.99
2018-09-21T00:29:22.286Z,1025.98
2018-09-21T00:30:22.280Z,1025.97
2018-09-21T00:31:22.275Z,1025.93
2018-09-21T00:32:22.270Z,1025.93
2018-09-21T00:33:22.263Z,1026
2018-09-21T00:34:22.258Z,1025.97
2018-09-21T00:35:22.253Z,1025.96
2018-09-21T00:36:22.248Z,1025.98
2018-09-21T00:37:22.242Z,1025.98
2018-09-21T00:38:22.240Z,1026.03
2018-09-21T00:39:22.232Z,1026.03
2018-09-21T00:40:22.227Z,1026.02
2018-09-21T00:41:22.220Z,1026
2018-09-21T00:42:22.216Z,1026
2018-09-21T00:43:22.210Z,1026.03
2018-09-21T00:44:22.212Z,1026.02
2018-09-21T00:45:22.199Z,1026.02
2018-09-21T00:46:22.196Z,1025.99
2018-09-21T00:47:22.192Z,1025.95
2018-09-21T00:48:22.183Z,1026
2018-09-21T00:49:22.177Z,1025.94
2018-09-21T00:50:22.176Z,1026.01
2018-09-21T00:51:22.169Z,1025.98
2018-09-21T00:52:22.163Z,1025.99
2018-09-21T00:53:22.158Z,1025.96
2018-09-21T00:54:22.151Z,1025.94
2018-09-21T00:55:22.145Z,1025.93
2018-09-21T00:56:22.142Z,1025.88
2018-09-21T00:57:22.134Z,1025.89
2018-09-21T00:58:22.135Z,1025.89
2018-09-21T00:59:22.125Z,1025.87
2018-09-21T01:00:22.118Z,1025.82
2018-09-21T01:01:22.122Z,1025.8
2018-09-21T01:02:22.106Z,1025.79
2018-09-21T01:03:22.101Z,1025.77
2018-09-21T01:04:22.095Z,1025.78
2018-09-21T01:05:22.094Z,1025.78
2018-09-21T01:06:22.085Z,1025.8
2018-09-21T01:07:22.079Z,1025.75
2018-09-21T01:08:22.074Z,1025.76
2018-09-21T01:09:22.069Z,1025.76
2018-09-21T01:10:22.066Z,1025.76
2018-09-21T01:11:22.057Z,1025.75
2018-09-21T01:12:22.057Z,1025.75
2018-09-21T01:13:22.045Z,1025.72
2018-09-21T01:14:22.040Z,1025.73
2018-09-21T01:15:22.035Z,1025.7
2018-09-21T01:16:22.030Z,1025.7
2018-09-21T01:17:22.023Z,1025.68
2018-09-21T01:18:22.018Z,1025.73
2018-09-21T01:19:22.014Z,1025.71
2018-09-21T01:20:22.007Z,1025.71
2018-09-21T01:21:22.001Z,1025.7
2018-09-21T01:22:21.996Z,1025.68
2018-09-21T01:23:21.991Z,1025.66
2018-09-21T01:24:21.985Z,1025.65
2018-09-21T01:25:21.980Z,1025.64
2018-09-21T01:26:21.973Z,1025.59
2018-09-21T01:27:21.968Z,1025.58
2018-09-21T01:28:21.962Z,1025.63
2018-09-21T01:29:21.956Z,1025.61
2018-09-21T01:30:21.951Z,1025.67
2018-09-21T01:31:21.950Z,1025.65
2018-09-21T01:32:21.939Z,1025.63
2018-09-21T01:33:21.934Z,1025.65
2018-09-21T01:34:21.964Z,1025.66
2018-09-21T01:35:21.925Z,1025.68
2018-09-21T01:36:21.916Z,1025.61
2018-09-21T01:37:21.914Z,1025.61
2018-09-21T01:38:21.907Z,1025.59
2018-09-21T01:39:21.900Z,1025.55
2018-09-21T01:40:21.895Z,1025.51
2018-09-21T01:41:21.889Z,1025.49
2018-09-21T01:42:21.885Z,1025.46
2018-09-21T01:43:21.879Z,1025.46
2018-09-21T01:44:21.871Z,1025.42
2018-09-21T01:45:21.866Z,1025.38
2018-09-21T01:46:21.860Z,1025.39
2018-09-21T01:47:21.855Z,1025.33
2018-09-21T01:48:21.850Z,1025.31
2018-09-21T01:49:21.844Z,1025.28
2018-09-21T01:50:21.841Z,1025.29
2018-09-21T01:51:21.833Z,1025.31
2018-09-21T01:52:21.826Z,1025.33
2018-09-21T01:53:21.822Z,1025.36
2018-09-21T01:54:21.815Z,1025.33
2018-09-21T01:55:21.810Z,1025.34
2018-09-21T01:56:21.805Z,1025.4
2018-09-21T01:57:21.798Z,1025.41
2018-09-21T01:58:21.793Z,1025.39
2018-09-21T01:59:21.787Z,1025.42
2018-09-21T02:00:21.782Z,1025.41
2018-09-21T02:01:21.775Z,1025.45
2018-09-21T02:02:21.770Z,1025.44
2018-09-21T02:03:21.765Z,1025.4
2018-09-21T02:04:21.760Z,1025.42
2018-09-21T02:05:21.757Z,1025.42
2018-09-21T02:06:21.747Z,1025.4
2018-09-21T02:07:21.743Z,1025.4
2018-09-21T02:08:21.737Z,1025.36
2018-09-21T02:09:21.731Z,1025.34
2018-09-21T02:10:21.725Z,1025.33
2018-09-21T02:11:21.720Z,1025.3
2018-09-21T02:12:21.717Z,1025.27
2018-09-21T02:13:21.709Z,1025.25
2018-09-21T02:14:21.703Z,1025.23
2018-09-21T02:15:21.698Z,1025.17
2018-09-21T02:16:21.699Z,1025.2
2018-09-21T02:17:21.687Z,1025.14
2018-09-21T02:18:21.685Z,1025.12
2018-09-21T02:19:21.677Z,1025.13
2018-09-21T02:20:21.668Z,1025.11
2018-09-21T02:21:21.672Z,1025.09
2018-09-21T02:22:21.658Z,1025.08
2018-09-21T02:23:21.651Z,1025.05
2018-09-21T02:24:21.647Z,1025.05
2018-09-21T02:25:21.642Z,1024.98
2018-09-21T02:26:21.636Z,1024.95
2018-09-21T02:27:21.630Z,1024.94
2018-09-21T02:28:21.625Z,1024.92
2018-09-21T02:29:21.619Z,1024.92
2018-09-21T02:30:21.615Z,1024.94
2018-09-21T02:31:21.608Z,1024.91
2018-09-21T02:32:21.604Z,1024.9
2018-09-21T02:33:21.598Z,1024.92
2018-09-21T02:34:21.592Z,1024.9
2018-09-21T02:35:21.586Z,1024.89
2018-09-21T02:36:21.580Z,1024.86
2018-09-21T02:37:21.583Z,1024.86
2018-09-21T02:38:21.570Z,1024.86
2018-09-21T02:39:21.565Z,1024.85
2018-09-21T02:40:21.559Z,1024.81
2018-09-21T02:41:21.606Z,1024.79
2018-09-21T02:42:21.547Z,1024.79
2018-09-21T02:43:21.547Z,1024.78
2018-09-21T02:44:21.537Z,1024.76
2018-09-21T02:45:21.532Z,1024.73
2018-09-21T02:46:21.529Z,1024.73
2018-09-21T02:47:21.521Z,1024.71
2018-09-21T02:48:21.518Z,1024.69
2018-09-21T02:49:21.514Z,1024.66
2018-09-21T02:50:21.505Z,1024.69
2018-09-21T02:51:21.500Z,1024.69
2018-09-21T02:52:21.493Z,1024.68
2018-09-21T02:53:21.488Z,1024.7
2018-09-21T02:54:21.483Z,1024.64
2018-09-21T02:55:21.478Z,1024.61
2018-09-21T02:56:21.472Z,1024.6
2018-09-21T02:57:21.467Z,1024.59
2018-09-21T02:58:21.463Z,1024.57
2018-09-21T02:59:21.455Z,1024.54
2018-09-21T03:00:21.487Z,1024.53
2018-09-21T03:01:21.446Z,1024.49
2018-09-21T03:02:21.440Z,1024.46
2018-09-21T03:03:21.436Z,1024.43
2018-09-21T03:04:21.428Z,1024.43
2018-09-21T03:05:21.425Z,1024.44
2018-09-21T03:06:21.419Z,1024.45
2018-09-21T03:07:21.412Z,1024.4
2018-09-21T03:08:21.408Z,1024.42
2018-09-21T03:09:21.403Z,1024.38
2018-09-21T03:10:21.396Z,1024.38
2018-09-21T03:11:21.390Z,1024.39
2018-09-21T03:12:21.385Z,1024.38
2018-09-21T03:13:21.469Z,1024.34
2018-09-21T03:14:21.374Z,1024.34
2018-09-21T03:15:21.370Z,1024.33
2018-09-21T03:16:21.365Z,1024.32
2018-09-21T03:17:21.359Z,1024.31
2018-09-21T03:18:21.355Z,1024.31
2018-09-21T03:19:21.347Z,1024.27
2018-09-21T03:20:21.345Z,1024.29
2018-09-21T03:21:21.337Z,1024.25
2018-09-21T03:22:21.332Z,1024.25
2018-09-21T03:23:21.327Z,1024.22
2018-09-21T03:24:21.322Z,1024.21
2018-09-21T03:25:21.329Z,1024.19
2018-09-21T03:26:21.311Z,1024.18
2018-09-21T03:27:21.306Z,1024.18
2018-09-21T03:28:21.301Z,1024.19
2018-09-21T03:29:21.295Z,1024.21
2018-09-21T03:30:21.290Z,1024.15
2018-09-21T03:31:21.287Z,1024.12
2018-09-21T03:32:21.279Z,1024.11
2018-09-21T03:33:21.273Z,1024.09
2018-09-21T03:34:21.273Z,1024.08
2018-09-21T03:35:21.379Z,1024.09
2018-09-21T03:36:21.258Z,1024.04
2018-09-21T03:37:21.253Z,1024.06
2018-09-21T03:38:21.251Z,1024.05
2018-09-21T03:39:21.243Z,1024.06
2018-09-21T03:40:21.236Z,1024.01
2018-09-21T03:41:21.232Z,1023.99
2018-09-21T03:42:21.227Z,1023.99
2018-09-21T03:43:21.221Z,1023.98
2018-09-21T03:44:21.219Z,1023.97
2018-09-21T03:45:21.210Z,1023.92
2018-09-21T03:46:21.205Z,1023.9
2018-09-21T03:47:21.199Z,1023.9
2018-09-21T03:48:21.193Z,1023.91
2018-09-21T03:49:21.189Z,1023.91
2018-09-21T03:50:21.185Z,1023.89
2018-09-21T03:51:21.179Z,1023.92
2018-09-21T03:52:21.173Z,1023.87
2018-09-21T03:53:21.171Z,1023.84
2018-09-21T03:54:21.165Z,1023.81
2018-09-21T03:55:21.157Z,1023.84
2018-09-21T03:56:21.152Z,1023.78
2018-09-21T03:57:21.147Z,1023.74
2018-09-21T03:58:21.141Z,1023.77
2018-09-21T03:59:21.136Z,1023.7
2018-09-21T04:00:21.140Z,1023.71
2018-09-21T04:01:21.126Z,1023.69
2018-09-21T04:02:21.121Z,1023.68
2018-09-21T04:03:21.117Z,1023.68
2018-09-21T04:04:21.113Z,1023.7
2018-09-21T04:05:21.105Z,1023.73
2018-09-21T04:06:21.100Z,1023.75
2018-09-21T04:07:21.095Z,1023.72
2018-09-21T04:08:21.090Z,1023.7
2018-09-21T04:09:21.083Z,1023.74
2018-09-21T04:10:21.079Z,1023.74
2018-09-21T04:11:21.077Z,1023.72
2018-09-21T04:12:21.068Z,1023.72
2018-09-21T04:13:21.064Z,1023.71
2018-09-21T04:14:21.058Z,1023.68
2018-09-21T04:15:21.053Z,1023.67
2018-09-21T04:16:21.047Z,1023.66
2018-09-21T04:17:21.042Z,1023.64
2018-09-21T04:18:21.037Z,1023.65
2018-09-21T04:19:21.032Z,1023.64
2018-09-21T04:20:21.029Z,1023.61
2018-09-21T04:21:21.021Z,1023.64
2018-09-21T04:22:21.018Z,1023.6
2018-09-21T04:23:21.010Z,1023.57
2018-09-21T04:24:21.005Z,1023.53
2018-09-21T04:25:21.000Z,1023.5
2018-09-21T04:26:20.995Z,1023.5
2018-09-21T04:27:20.989Z,1023.47
2018-09-21T04:28:20.984Z,1023.51
2018-09-21T04:29:20.979Z,1023.45
2018-09-21T04:30:20.975Z,1023.44
2018-09-21T04:31:20.969Z,1023.44
2018-09-21T04:32:20.965Z,1023.45
2018-09-21T04:33:20.958Z,1023.44
2018-09-21T04:34:20.955Z,1023.43
2018-09-21T04:35:20.947Z,1023.38
2018-09-21T04:36:20.943Z,1023.38
2018-09-21T04:37:21.188Z,1023.39
2018-09-21T04:38:20.930Z,1023.36
2018-09-21T04:39:20.926Z,1023.35
2018-09-21T04:40:20.924Z,1023.31
2018-09-21T04:41:20.916Z,1023.33
2018-09-21T04:42:20.910Z,1023.3
2018-09-21T04:43:20.905Z,1023.3
2018-09-21T04:44:20.900Z,1023.33
2018-09-21T04:45:20.894Z,1023.28
2018-09-21T04:46:20.894Z,1023.27
2018-09-21T04:47:20.887Z,1023.27
2018-09-21T04:48:20.879Z,1023.26
2018-09-21T04:49:20.873Z,1023.23
2018-09-21T04:50:20.873Z,1023.26
2018-09-21T04:51:20.863Z,1023.26
2018-09-21T04:52:20.884Z,1023.23
2018-09-21T04:53:20.852Z,1023.26
2018-09-21T04:54:20.847Z,1023.23
2018-09-21T04:55:20.843Z,1023.19
2018-09-21T04:56:20.837Z,1023.23
2018-09-21T04:57:20.831Z,1023.21
2018-09-21T04:58:20.826Z,1023.15
2018-09-21T04:59:20.821Z,1023.15
2018-09-21T05:00:20.815Z,1023.13
2018-09-21T05:01:20.855Z,1023.14
2018-09-21T05:02:20.809Z,1023.09
2018-09-21T05:03:20.801Z,1023.09
2018-09-21T05:04:20.794Z,1023.04
2018-09-21T05:05:20.790Z,1023.02
2018-09-21T05:06:20.785Z,1022.98
2018-09-21T05:07:20.779Z,1023.03
2018-09-21T05:08:20.774Z,1022.99
2018-09-21T05:09:20.769Z,1022.99
2018-09-21T05:10:20.768Z,1022.98
2018-09-21T05:11:20.762Z,1022.93
2018-09-21T05:12:20.754Z,1022.91
2018-09-21T05:13:20.749Z,1022.93
2018-09-21T05:14:20.744Z,1022.82
2018-09-21T05:15:20.739Z,1022.81
2018-09-21T05:16:20.733Z,1022.77
2018-09-21T05:17:20.729Z,1022.72
2018-09-21T05:18:20.723Z,1022.71
2018-09-21T05:19:20.718Z,1022.67
2018-09-21T05:20:20.713Z,1022.68
2018-09-21T05:21:20.709Z,1022.59
2018-09-21T05:22:20.703Z,1022.58
2018-09-21T05:23:20.706Z,1022.53
2018-09-21T05:24:20.695Z,1022.47
2018-09-21T05:25:20.692Z,1022.39
2018-09-21T05:26:20.685Z,1022.36
2018-09-21T05:27:20.680Z,1022.27
2018-09-21T05:28:20.678Z,1022.14
2018-09-21T05:29:20.669Z,1022.06
2018-09-21T05:30:20.665Z,1021.95
2018-09-21T05:31:20.660Z,1021.86
2018-09-21T05:32:20.656Z,1021.76
2018-09-21T05:33:20.651Z,1021.59
2018-09-21T05:34:20.678Z,1021.49
2018-09-21T05:35:20.643Z,1021.38
2018-09-21T05:36:20.639Z,1021.28
2018-09-21T05:37:20.634Z,1021.2
2018-09-21T05:38:20.630Z,1021.14
2018-09-21T05:39:20.627Z,1021.02
2018-09-21T05:40:20.622Z,1020.9
2018-09-21T05:41:20.619Z,1020.81
2018-09-21T05:42:20.615Z,1020.64
2018-09-21T05:43:20.614Z,1020.57
2018-09-21T05:44:20.607Z,1020.47
2018-09-21T05:45:20.604Z,1020.4
2018-09-21T05:46:20.602Z,1020.32
2018-09-21T05:47:20.601Z,1020.31
2018-09-21T05:48:20.595Z,1020.26
2018-09-21T05:49:20.593Z,1020.18
2018-09-21T05:50:20.590Z,1020.09
2018-09-21T05:51:20.585Z,1019.93
2018-09-21T05:52:20.584Z,1019.86
2018-09-21T05:53:20.581Z,1019.81
2018-09-21T05:54:20.579Z,1019.69
2018-09-21T05:55:20.575Z,1019.56
2018-09-21T05:56:20.574Z,1019.5
2018-09-21T05:57:20.572Z,1019.37
2018-09-21T05:58:20.569Z,1019.28
2018-09-21T05:59:20.567Z,1019.24
2018-09-21T06:00:20.567Z,1019.18
2018-09-21T06:01:20.565Z,1019.16
2018-09-21T06:02:20.565Z,1019.14
2018-09-21T06:03:20.561Z,1019.13
2018-09-21T06:04:20.560Z,1019.07
2018-09-21T06:05:20.561Z,1019.04
2018-09-21T06:06:20.557Z,1018.99
2018-09-21T06:07:20.558Z,1018.93
2018-09-21T06:08:20.607Z,1018.86
2018-09-21T06:09:20.555Z,1018.81
2018-09-21T06:10:20.554Z,1018.8
2018-09-21T06:11:20.554Z,1018.78
2018-09-21T06:12:20.553Z,1018.77
2018-09-21T06:13:20.551Z,1018.81
2018-09-21T06:14:20.552Z,1018.82
2018-09-21T06:15:20.552Z,1018.84
2018-09-21T06:16:20.552Z,1018.91
2018-09-21T06:17:20.553Z,1018.86
2018-09-21T06:18:20.551Z,1018.8
2018-09-21T06:19:20.589Z,1018.79
2018-09-21T06:20:20.551Z,1018.76
2018-09-21T06:21:20.552Z,1018.68
2018-09-21T06:22:20.561Z,1018.55
2018-09-21T06:23:20.552Z,1018.52
2018-09-21T06:24:20.551Z,1018.48
2018-09-21T06:25:20.551Z,1018.29
2018-09-21T06:26:20.552Z,1018.21
2018-09-21T06:27:20.553Z,1018.09
2018-09-21T06:28:20.552Z,1017.97
2018-09-21T06:29:20.553Z,1017.85
2018-09-21T06:30:20.554Z,1017.71
2018-09-21T06:31:20.554Z,1017.59
2018-09-21T06:32:20.556Z,1017.48
2018-09-21T06:33:20.556Z,1017.36
2018-09-21T06:34:20.558Z,1017.24
2018-09-21T06:35:20.559Z,1017.23
2018-09-21T06:36:20.563Z,1017.25
2018-09-21T06:37:20.561Z,1017.23
2018-09-21T06:38:20.564Z,1017.13
2018-09-21T06:39:20.565Z,1017.09
2018-09-21T06:40:20.567Z,1016.96
2018-09-21T06:41:20.570Z,1016.77
2018-09-21T06:42:20.572Z,1016.68
2018-09-21T06:43:20.574Z,1016.51
2018-09-21T06:44:20.584Z,1016.35
2018-09-21T06:45:20.581Z,1016.28
2018-09-21T06:46:20.582Z,1016.24
2018-09-21T06:47:20.590Z,1016.27
2018-09-21T06:48:20.590Z,1016.21
2018-09-21T06:49:20.593Z,1016.17
2018-09-21T06:50:20.596Z,1016.12
2018-09-21T06:51:20.601Z,1015.91
2018-09-21T06:52:20.605Z,1015.91
2018-09-21T06:53:20.607Z,1015.86
2018-09-21T06:54:20.612Z,1015.75
2018-09-21T06:55:20.617Z,1015.76
2018-09-21T06:56:20.622Z,1015.66
2018-09-21T06:57:20.626Z,1015.57
2018-09-21T06:58:20.631Z,1015.5
2018-09-21T06:59:20.641Z,1015.45
2018-09-21T07:00:20.655Z,1015.41
2018-09-21T07:01:20.690Z,1015.42
2018-09-21T07:02:20.654Z,1015.32
2018-09-21T07:03:20.657Z,1015.25
2018-09-21T07:04:20.663Z,1015.12
2018-09-21T07:05:20.669Z,1015.02
2018-09-21T07:06:20.676Z,1014.92
2018-09-21T07:07:20.682Z,1014.76
2018-09-21T07:08:20.688Z,1014.78
2018-09-21T07:09:20.696Z,1014.76
2018-09-21T07:10:20.707Z,1014.58
2018-09-21T07:11:20.709Z,1014.48
2018-09-21T07:12:20.723Z,1014.4
2018-09-21T07:13:20.727Z,1014.29
2018-09-21T07:14:20.732Z,1014.15
2018-09-21T07:15:20.738Z,1014.11
2018-09-21T07:16:20.747Z,1014.07
2018-09-21T07:17:20.754Z,1013.93
2018-09-21T07:18:20.762Z,1014.12
2018-09-21T07:19:20.769Z,1014.15
2018-09-21T07:20:20.781Z,1014.18
2018-09-21T07:21:20.786Z,1014.12
2018-09-21T07:22:20.793Z,1013.97
2018-09-21T07:23:20.802Z,1013.75
2018-09-21T07:24:20.810Z,1013.68
2018-09-21T07:25:20.819Z,1013.53
2018-09-21T07:26:20.827Z,1013.5
2018-09-21T07:27:20.837Z,1013.54
2018-09-21T07:28:20.845Z,1013.41
2018-09-21T07:29:20.858Z,1013.47
2018-09-21T07:30:20.864Z,1013.62
2018-09-21T07:31:20.938Z,1013.67
2018-09-21T07:32:20.881Z,1013.68
2018-09-21T07:33:20.889Z,1013.83
2018-09-21T07:34:20.898Z,1013.99
2018-09-21T07:35:20.908Z,1014.18
2018-09-21T07:36:20.917Z,1014.35
2018-09-21T07:37:20.979Z,1014.48
2018-09-21T07:38:20.935Z,1014.34
2018-09-21T07:39:20.944Z,1014.19
2018-09-21T07:40:20.956Z,1014.26
2018-09-21T07:41:20.961Z,1014.38
2018-09-21T07:42:20.971Z,1014.39
2018-09-21T07:43:20.980Z,1014.34
2018-09-21T07:44:20.991Z,1014.47
2018-09-21T07:45:20.999Z,1014.57
2018-09-21T07:46:21.009Z,1014.59
2018-09-21T07:47:21.014Z,1014.62
2018-09-21T07:48:21.025Z,1014.76
2018-09-21T07:49:21.032Z,1014.84
2018-09-21T07:50:21.062Z,1015.01
2018-09-21T07:51:21.048Z,1014.97
2018-09-21T07:52:21.058Z,1014.95
2018-09-21T07:53:21.063Z,1014.95
2018-09-21T07:54:21.104Z,1014.91
2018-09-21T07:55:21.080Z,1014.94
2018-09-21T07:56:21.088Z,1014.99
2018-09-21T07:57:21.096Z,1014.87
2018-09-21T07:58:21.105Z,1015.09
2018-09-21T07:59:21.110Z,1015.35
2018-09-21T08:00:21.118Z,1015.6
2018-09-21T08:01:21.127Z,1015.83
2018-09-21T08:02:21.137Z,1015.94
2018-09-21T08:03:21.141Z,1016.1
2018-09-21T08:04:21.147Z,1016.2
2018-09-21T08:05:21.155Z,1016.31
2018-09-21T08:06:21.161Z,1016.39
2018-09-21T08:07:21.226Z,1016.53
2018-09-21T08:08:21.174Z,1016.62
2018-09-21T08:09:21.181Z,1016.67
2018-09-21T08:10:21.186Z,1016.74
2018-09-21T08:11:21.191Z,1016.77
2018-09-21T08:12:21.196Z,1016.92
2018-09-21T08:13:21.202Z,1016.86
2018-09-21T08:14:21.206Z,1016.95
2018-09-21T08:15:21.212Z,1017.03
2018-09-21T08:16:21.216Z,1017.06
2018-09-21T08:17:21.221Z,1017.1
2018-09-21T08:18:21.225Z,1017.14
2018-09-21T08:19:21.264Z,1017.19
2018-09-21T08:20:21.235Z,1017.18
2018-09-21T08:21:21.238Z,1017.2
2018-09-21T08:22:21.242Z,1017.21
2018-09-21T08:23:21.246Z,1017.21
2018-09-21T08:24:21.251Z,1017.22
2018-09-21T08:25:21.256Z,1017.22
2018-09-21T08:26:21.257Z,1017.22
2018-09-21T08:27:21.261Z,1017.24
2018-09-21T08:28:21.263Z,1017.28
2018-09-21T08:29:21.268Z,1017.25
2018-09-21T08:30:21.272Z,1017.24
2018-09-21T08:31:21.297Z,1017.27
2018-09-21T08:32:21.277Z,1017.24
2018-09-21T08:33:21.389Z,1017.25
2018-09-21T08:34:21.284Z,1017.27
2018-09-21T08:35:21.287Z,1017.28
2018-09-21T08:36:21.289Z,1017.25
2018-09-21T08:37:21.308Z,1017.26
2018-09-21T08:38:21.298Z,1017.26
2018-09-21T08:39:21.298Z,1017.19
2018-09-21T08:40:21.303Z,1017.2
2018-09-21T08:41:21.311Z,1017.19
2018-09-21T08:42:21.307Z,1017.16
2018-09-21T08:43:21.308Z,1017.12
2018-09-21T08:44:21.312Z,1017.15
2018-09-21T08:45:21.347Z,1017.15
2018-09-21T08:46:21.318Z,1017.14
2018-09-21T08:47:21.321Z,1017.14
2018-09-21T08:48:21.323Z,1017.09
2018-09-21T08:49:21.326Z,1017.01
2018-09-21T08:50:21.328Z,1017.01
2018-09-21T08:51:21.332Z,1016.96
2018-09-21T08:52:21.333Z,1016.91
2018-09-21T08:53:21.336Z,1016.85
2018-09-21T08:54:21.339Z,1016.77
2018-09-21T08:55:21.341Z,1016.78
2018-09-21T08:56:21.345Z,1016.61
2018-09-21T08:57:21.346Z,1016.67
2018-09-21T08:58:21.349Z,1016.65
2018-09-21T08:59:21.352Z,1016.64
2018-09-21T09:00:21.357Z,1016.64
2018-09-21T09:01:21.357Z,1016.63
2018-09-21T09:02:21.360Z,1016.67
2018-09-21T09:03:21.419Z,1016.67
2018-09-21T09:04:21.366Z,1016.65
2018-09-21T09:05:21.368Z,1016.64
2018-09-21T09:06:21.371Z,1016.63
2018-09-21T09:07:21.374Z,1016.66
2018-09-21T09:08:21.376Z,1016.63
2018-09-21T09:09:21.379Z,1016.61
2018-09-21T09:10:21.383Z,1016.59
2018-09-21T09:11:21.385Z,1016.51
2018-09-21T09:12:21.387Z,1016.5
2018-09-21T09:13:21.390Z,1016.49
2018-09-21T09:14:21.394Z,1016.44
2018-09-21T09:15:21.396Z,1016.45
2018-09-21T09:16:21.399Z,1016.44
2018-09-21T09:17:21.401Z,1016.44
2018-09-21T09:18:21.404Z,1016.44
2018-09-21T09:19:21.407Z,1016.42
2018-09-21T09:20:21.437Z,1016.44
2018-09-21T09:21:21.412Z,1016.42
2018-09-21T09:22:21.415Z,1016.36
2018-09-21T09:23:21.418Z,1016.32
2018-09-21T09:24:21.421Z,1016.35
2018-09-21T09:25:21.424Z,1016.29
2018-09-21T09:26:21.439Z,1016.28
2018-09-21T09:27:21.428Z,1016.21
2018-09-21T09:28:21.432Z,1016.33
2018-09-21T09:29:21.435Z,1016.22
2018-09-21T09:30:21.437Z,1016.19
2018-09-21T09:31:21.441Z,1016.2
2018-09-21T09:32:21.444Z,1016.14
2018-09-21T09:33:21.448Z,1016.05
2018-09-21T09:34:21.449Z,1016.05
2018-09-21T09:35:21.452Z,1016.02
2018-09-21T09:36:21.455Z,1016.02
2018-09-21T09:37:21.459Z,1016.02
2018-09-21T09:38:21.461Z,1016.02
2018-09-21T09:39:21.464Z,1016.01
2018-09-21T09:40:21.468Z,1015.96
2018-09-21T09:41:21.470Z,1015.97
2018-09-21T09:42:21.473Z,1015.96
2018-09-21T09:43:21.576Z,1015.89
2018-09-21T09:44:21.479Z,1015.9
2018-09-21T09:45:21.485Z,1015.84
2018-09-21T09:46:21.486Z,1015.86
2018-09-21T09:47:21.488Z,1015.79
2018-09-21T09:48:21.579Z,1015.74
2018-09-21T09:49:21.612Z,1015.73
2018-09-21T09:50:21.498Z,1015.73
2018-09-21T09:51:21.501Z,1015.67
2018-09-21T09:52:21.506Z,1015.55
2018-09-21T09:53:21.507Z,1015.51
2018-09-21T09:54:21.515Z,1015.47
2018-09-21T09:55:21.514Z,1015.4
2018-09-21T09:56:21.516Z,1015.39
2018-09-21T09:57:21.519Z,1015.38
2018-09-21T09:58:21.523Z,1015.28
2018-09-21T09:59:21.527Z,1015.2
2018-09-21T10:00:21.529Z,1015.21
2018-09-21T10:01:21.534Z,1015.01
2018-09-21T10:02:21.536Z,1014.96
2018-09-21T10:03:21.582Z,1014.81
2018-09-21T10:04:21.544Z,1014.78
2018-09-21T10:05:21.547Z,1014.68
2018-09-21T10:06:21.551Z,1014.67
2018-09-21T10:07:21.555Z,1014.58
2018-09-21T10:08:21.557Z,1014.45
2018-09-21T10:09:21.562Z,1014.41
2018-09-21T10:10:21.585Z,1014.34
2018-09-21T10:11:21.569Z,1014.34
2018-09-21T10:12:21.574Z,1014.28
2018-09-21T10:13:21.583Z,1014.24
2018-09-21T10:14:21.581Z,1014.18
2018-09-21T10:15:21.587Z,1014.23
2018-09-21T10:16:21.614Z,1014.2
2018-09-21T10:17:21.596Z,1014.16
2018-09-21T10:18:21.601Z,1014.16
2018-09-21T10:19:21.604Z,1014.19
2018-09-21T10:20:21.609Z,1014.19
2018-09-21T10:21:21.615Z,1014.1
2018-09-21T10:22:21.620Z,1014.1
2018-09-21T10:23:21.624Z,1014.09
2018-09-21T10:24:21.629Z,1014.15
2018-09-21T10:25:21.633Z,1014.06
2018-09-21T10:26:21.638Z,1013.98
2018-09-21T10:27:21.820Z,1014.02
2018-09-21T10:28:21.799Z,1013.94
2018-09-21T10:29:21.653Z,1013.92
2018-09-21T10:30:21.658Z,1013.86
2018-09-21T10:31:21.687Z,1013.84
2018-09-21T10:32:21.667Z,1013.83
2018-09-21T10:33:21.682Z,1013.77
2018-09-21T10:34:21.678Z,1013.84
2018-09-21T10:35:21.734Z,1013.85
2018-09-21T10:36:21.687Z,1013.85
2018-09-21T10:37:21.719Z,1013.82
2018-09-21T10:38:21.699Z,1013.83
2018-09-21T10:39:21.824Z,1013.74
2018-09-21T10:40:21.741Z,1013.72
2018-09-21T10:41:21.716Z,1013.65
2018-09-21T10:42:21.772Z,1013.63
2018-09-21T10:43:21.724Z,1013.54
2018-09-21T10:44:21.728Z,1013.49
2018-09-21T10:45:21.734Z,1013.42
2018-09-21T10:46:21.739Z,1013.39
2018-09-21T10:47:21.743Z,1013.35
2018-09-21T10:48:21.753Z,1013.26
2018-09-21T10:49:21.755Z,1013.23
2018-09-21T10:50:21.760Z,1013.14
2018-09-21T10:51:21.766Z,1013.02
2018-09-21T10:52:21.771Z,1012.93
2018-09-21T10:53:21.776Z,1012.89
2018-09-21T10:54:21.786Z,1012.89
2018-09-21T10:55:21.787Z,1012.88
2018-09-21T10:56:21.793Z,1012.82
2018-09-21T10:57:21.800Z,1012.81
2018-09-21T10:58:21.805Z,1012.83
2018-09-21T10:59:21.809Z,1012.8
2018-09-21T11:00:21.852Z,1012.73
2018-09-21T11:01:21.821Z,1012.74
2018-09-21T11:02:21.826Z,1012.69
2018-09-21T11:03:21.832Z,1012.69
2018-09-21T11:04:21.838Z,1012.72
2018-09-21T11:05:21.845Z,1012.63
2018-09-21T11:06:21.849Z,1012.69
2018-09-21T11:07:21.968Z,1012.84
2018-09-21T11:08:21.861Z,1012.84
2018-09-21T11:09:21.917Z,1012.82
2018-09-21T11:10:21.873Z,1012.82
2018-09-21T11:11:21.879Z,1012.74
2018-09-21T11:12:21.885Z,1012.69
2018-09-21T11:13:21.890Z,1012.79
2018-09-21T11:14:21.896Z,1012.77
2018-09-21T11:15:21.904Z,1012.81
2018-09-21T11:16:21.908Z,1012.82
2018-09-21T11:17:21.914Z,1012.81
2018-09-21T11:18:21.920Z,1012.77
2018-09-21T11:19:21.926Z,1012.73
2018-09-21T11:20:21.931Z,1012.73
2018-09-21T11:21:21.937Z,1012.68
2018-09-21T11:22:21.943Z,1012.68
2018-09-21T11:23:21.949Z,1012.55
2018-09-21T11:24:21.955Z,1012.37
2018-09-21T11:25:21.961Z,1012.39
2018-09-21T11:26:21.967Z,1012.3
2018-09-21T11:27:21.973Z,1012.27
2018-09-21T11:28:21.984Z,1012.31
2018-09-21T11:29:21.984Z,1012.3
2018-09-21T11:30:21.991Z,1012.27
2018-09-21T11:31:21.995Z,1012.3
2018-09-21T11:32:22.003Z,1012.28
2018-09-21T11:33:22.008Z,1012.31
2018-09-21T11:34:22.014Z,1012.36
2018-09-21T11:35:22.019Z,1012.4
2018-09-21T11:36:22.025Z,1012.39
2018-09-21T11:37:22.032Z,1012.38
2018-09-21T11:38:22.037Z,1012.28
2018-09-21T11:39:22.043Z,1012.34
2018-09-21T11:40:22.049Z,1012.31
2018-09-21T11:41:22.057Z,1012.27
2018-09-21T11:42:22.060Z,1012.27
2018-09-21T11:43:22.067Z,1012.28
2018-09-21T11:44:22.072Z,1012.26
2018-09-21T11:45:22.078Z,1012.33
2018-09-21T11:46:22.083Z,1012.34
2018-09-21T11:47:22.245Z,1012.28
2018-09-21T11:48:22.095Z,1012.26
2018-09-21T11:49:22.100Z,1012.31
2018-09-21T11:51:22.112Z,1012.22
2018-09-21T11:52:22.121Z,1012.2
2018-09-21T11:53:22.124Z,1012.08
2018-09-21T11:54:22.129Z,1012.05
2018-09-21T11:55:22.135Z,1012.06
2018-09-21T11:56:22.141Z,1012.05
2018-09-21T11:57:22.146Z,1012.07
2018-09-21T11:58:22.152Z,1012.06
2018-09-21T11:59:22.158Z,1012.06
2018-09-21T12:00:22.163Z,1012.02
2018-09-21T12:01:22.169Z,1011.93
2018-09-21T12:02:22.175Z,1011.88
2018-09-21T12:03:22.181Z,1011.84
2018-09-21T12:04:22.190Z,1011.81
2018-09-21T12:05:22.192Z,1011.79
2018-09-21T12:06:22.198Z,1011.82
2018-09-21T12:07:22.203Z,1011.87
2018-09-21T12:08:22.210Z,1011.9
2018-09-21T12:09:22.215Z,1011.85